createdAt,value
2023-02-11T00:00:20.929Z,48.10
2023-02-11T00:05:20.805Z,48.40
2023-02-11T00:10:21.330Z,48.00
2023-02-11T00:15:20.679Z,50.10
2023-02-11T00:20:20.768Z,49.50
2023-02-11T00:25:20.913Z,45.40
2023-02-11T00:30:20.707Z,46.00
2023-02-11T00:35:21.028Z,41.70
2023-02-11T00:40:21.187Z,35.20
2023-02-11T00:45:20.690Z,35.50
2023-02-11T00:50:20.944Z,30.50
2023-02-11T00:55:20.988Z,35.00
2023-02-11T01:00:21.287Z,26.90
2023-02-11T01:05:21.138Z,31.60
2023-02-11T01:10:21.043Z,28.50
2023-02-11T01:15:21.343Z,32.70
2023-02-11T01:20:23.248Z,33.00
2023-02-11T01:25:20.882Z,34.60
2023-02-11T01:30:20.905Z,31.40
2023-02-11T01:35:20.612Z,32.10
2023-02-11T01:40:21.101Z,37.00
2023-02-11T01:45:40.436Z,33.20
2023-02-11T01:50:20.613Z,32.80
2023-02-11T01:55:31.001Z,33.50
2023-02-11T02:00:23.861Z,30.30
2023-02-11T02:05:28.099Z,31.30
2023-02-11T02:10:24.948Z,33.30
2023-02-11T02:15:24.683Z,36.30
2023-02-11T02:20:40.298Z,34.50
2023-02-11T02:25:41.640Z,34.60
2023-02-11T02:30:39.982Z,31.40
2023-02-11T02:35:31.899Z,35.90
2023-02-11T02:40:26.025Z,36.30
2023-02-11T02:45:20.866Z,36.00
2023-02-11T02:50:29.156Z,33.90
2023-02-11T02:55:34.172Z,30.90
2023-02-11T03:00:26.120Z,31.30
2023-02-11T03:05:30.168Z,34.40
2023-02-11T03:10:26.041Z,35.50
2023-02-11T03:15:23.641Z,37.00
2023-02-11T03:20:22.184Z,34.00
2023-02-11T03:25:25.423Z,32.30
2023-02-11T03:30:26.014Z,35.60
2023-02-11T03:35:23.335Z,30.40
2023-02-11T03:40:24.895Z,35.10
2023-02-11T03:45:23.902Z,29.80
2023-02-11T03:50:22.326Z,32.30
2023-02-11T03:55:24.906Z,30.90
2023-02-11T04:00:20.573Z,31.60
2023-02-11T04:05:20.554Z,31.00
2023-02-11T04:10:21.234Z,30.40
2023-02-11T04:15:20.761Z,36.50
2023-02-11T04:20:20.632Z,36.20
2023-02-11T04:25:20.926Z,32.50
2023-02-11T04:30:20.572Z,36.30
2023-02-11T04:35:20.885Z,40.70
2023-02-11T04:40:20.779Z,38.20
2023-02-11T04:45:20.613Z,34.60
2023-02-11T04:50:20.436Z,34.80
2023-02-11T04:55:20.778Z,37.60
2023-02-11T05:00:20.540Z,33.10
2023-02-11T05:05:22.661Z,37.10
2023-02-11T05:10:20.522Z,37.20
2023-02-11T05:15:20.622Z,37.50
2023-02-11T05:20:21.336Z,37.90
2023-02-11T05:25:20.468Z,38.80
2023-02-11T05:30:20.919Z,38.60
2023-02-11T05:35:20.569Z,40.40
2023-02-11T05:40:20.478Z,40.20
2023-02-11T05:45:20.609Z,39.40
2023-02-11T05:50:20.676Z,42.60
2023-02-11T05:55:20.388Z,38.80
2023-02-11T06:00:20.660Z,38.40
2023-02-11T06:05:20.840Z,37.50
2023-02-11T06:10:20.683Z,40.00
2023-02-11T06:15:20.466Z,37.90
2023-02-11T06:20:20.549Z,42.40
2023-02-11T06:25:20.782Z,38.20
2023-02-11T06:30:20.360Z,38.20
2023-02-11T06:35:20.672Z,41.80
2023-02-11T06:40:20.418Z,41.30
2023-02-11T06:45:20.450Z,41.00
2023-02-11T06:50:21.088Z,39.70
2023-02-11T06:55:20.395Z,43.30
2023-02-11T07:00:20.560Z,45.50
2023-02-11T07:05:20.748Z,45.60
2023-02-11T07:10:20.444Z,47.30
2023-02-11T07:15:20.428Z,44.20
2023-02-11T07:20:20.442Z,43.00
2023-02-11T07:25:20.376Z,65.70
2023-02-11T07:30:20.758Z,45.90
2023-02-11T07:35:20.535Z,45.00
2023-02-11T07:40:20.589Z,44.70
2023-02-11T07:45:20.406Z,52.60
2023-02-11T07:50:20.545Z,49.90
2023-02-11T07:55:20.418Z,54.40
2023-02-11T08:00:21.281Z,53.20
2023-02-11T08:05:20.534Z,61.00
2023-02-11T08:10:21.023Z,57.50
2023-02-11T08:15:20.237Z,70.20
2023-02-11T08:20:20.816Z,55.20
2023-02-11T08:25:20.457Z,55.10
2023-02-11T08:30:20.642Z,51.90
2023-02-11T08:35:20.470Z,56.30
2023-02-11T08:40:20.534Z,53.20
2023-02-11T08:45:20.393Z,54.00
2023-02-11T08:50:20.940Z,53.90
2023-02-11T08:55:20.265Z,57.40
2023-02-11T09:00:20.743Z,54.00
2023-02-11T09:05:21.793Z,54.10
2023-02-11T09:10:20.261Z,56.30
2023-02-11T09:15:20.430Z,62.60
2023-02-11T09:20:21.128Z,53.10
2023-02-11T09:25:20.490Z,53.10
2023-02-11T09:30:20.789Z,56.00
2023-02-11T09:35:20.462Z,55.90
2023-02-11T09:40:21.288Z,50.60
2023-02-11T09:45:23.402Z,52.90
2023-02-11T09:50:25.237Z,56.30
2023-02-11T09:55:24.163Z,57.50
2023-02-11T10:00:26.783Z,57.70
2023-02-11T10:05:30.797Z,52.10
2023-02-11T10:10:34.486Z,52.20
2023-02-11T10:15:28.341Z,53.70
2023-02-11T10:20:29.007Z,48.90
2023-02-11T10:25:23.795Z,57.10
2023-02-11T10:30:27.718Z,56.70
2023-02-11T10:35:22.509Z,57.10
2023-02-11T10:40:22.181Z,52.20
2023-02-11T10:45:26.223Z,54.70
2023-02-11T10:50:23.186Z,56.60
2023-02-11T10:55:25.113Z,55.90
2023-02-11T11:00:29.998Z,60.70
2023-02-11T11:05:25.962Z,62.40
2023-02-11T11:10:34.590Z,64.80
2023-02-11T11:15:22.543Z,65.30
2023-02-11T11:20:26.289Z,64.60
2023-02-11T11:25:23.117Z,67.90
2023-02-11T11:30:24.285Z,73.10
2023-02-11T11:35:24.877Z,75.70
2023-02-11T11:40:24.432Z,73.50
2023-02-11T11:45:25.021Z,73.20
2023-02-11T11:50:26.919Z,70.80
2023-02-11T11:55:25.995Z,81.30
2023-02-11T12:00:26.898Z,77.10
2023-02-11T12:05:25.719Z,72.90
2023-02-11T12:10:30.819Z,72.70
2023-02-11T12:15:30.213Z,74.40
2023-02-11T12:20:28.330Z,76.00
2023-02-11T12:25:25.872Z,69.60
2023-02-11T12:30:33.498Z,76.80
2023-02-11T12:35:27.476Z,73.80
2023-02-11T12:40:27.806Z,72.70
2023-02-11T12:45:29.645Z,70.90
2023-02-11T12:50:29.133Z,75.40
2023-02-11T12:55:24.132Z,72.40
2023-02-11T13:00:24.565Z,69.30
2023-02-11T13:05:25.294Z,70.70
2023-02-11T13:10:26.683Z,67.90
2023-02-11T13:15:20.029Z,71.80
2023-02-11T13:20:27.666Z,68.80
2023-02-11T13:25:30.700Z,72.20
2023-02-11T13:30:27.380Z,78.60
2023-02-11T13:35:28.800Z,78.20
2023-02-11T13:40:22.148Z,73.40
2023-02-11T13:45:29.256Z,72.60
2023-02-11T13:50:22.937Z,79.00
2023-02-11T13:55:22.506Z,73.10
2023-02-11T14:00:39.930Z,71.70
2023-02-11T14:05:35.379Z,78.90
2023-02-11T14:10:39.887Z,78.60
2023-02-11T14:15:25.632Z,78.20
2023-02-11T14:20:32.283Z,77.10
2023-02-11T14:25:23.111Z,72.40
2023-02-11T14:30:28.768Z,77.20
2023-02-11T14:35:29.535Z,69.30
2023-02-11T14:40:28.535Z,78.10
2023-02-11T14:45:24.191Z,68.30
2023-02-11T14:50:26.059Z,69.00
2023-02-11T14:55:28.216Z,69.20
2023-02-11T15:00:22.065Z,67.10
2023-02-11T15:05:25.230Z,69.90
2023-02-11T15:10:29.445Z,64.00
2023-02-11T15:15:20.797Z,62.70
2023-02-11T15:20:25.620Z,62.60
2023-02-11T15:25:23.058Z,54.10
2023-02-11T15:30:26.156Z,56.50
2023-02-11T15:35:20.142Z,55.20
2023-02-11T15:40:22.230Z,56.70
2023-02-11T15:45:25.057Z,55.90
2023-02-11T15:50:22.443Z,54.70
2023-02-11T15:55:20.695Z,50.00
2023-02-11T16:00:23.731Z,46.70
2023-02-11T16:05:27.212Z,48.10
2023-02-11T16:10:23.357Z,43.10
2023-02-11T16:15:29.300Z,48.10
2023-02-11T16:20:20.334Z,45.30
2023-02-11T16:25:21.525Z,40.60
2023-02-11T16:30:26.977Z,39.60
2023-02-11T16:35:20.162Z,39.00
2023-02-11T16:40:20.292Z,40.00
2023-02-11T16:45:19.938Z,39.40
2023-02-11T16:50:22.384Z,38.00
2023-02-11T16:55:21.975Z,39.00
2023-02-11T17:00:20.656Z,33.30
2023-02-11T17:05:24.132Z,37.70
2023-02-11T17:09:21.935Z,37.70
2023-02-11T17:10:21.826Z,128.40
2023-02-11T17:15:19.856Z,70.50
2023-02-11T17:20:20.358Z,83.40
2023-02-11T17:25:19.912Z,66.50
2023-02-11T17:30:22.003Z,40.70
2023-02-11T17:35:20.227Z,30.00
2023-02-11T17:40:20.208Z,35.00
2023-02-11T17:45:22.278Z,29.90
2023-02-11T17:50:20.292Z,31.90
2023-02-11T17:55:19.798Z,28.90
2023-02-11T18:00:21.556Z,29.50
2023-02-11T18:05:20.102Z,31.10
2023-02-11T18:10:20.191Z,27.00
2023-02-11T18:15:19.969Z,27.90
2023-02-11T18:20:20.360Z,30.80
2023-02-11T18:25:20.045Z,29.10
2023-02-11T18:30:21.124Z,29.30
2023-02-11T18:35:20.615Z,31.10
2023-02-11T18:40:19.970Z,29.60
2023-02-11T18:45:20.043Z,32.30
2023-02-11T18:50:21.105Z,26.70
2023-02-11T18:55:24.376Z,27.40
2023-02-11T19:00:20.519Z,24.50
2023-02-11T19:05:20.674Z,25.50
2023-02-11T19:10:19.778Z,27.20
2023-02-11T19:15:19.758Z,27.30
2023-02-11T19:20:20.000Z,24.40
2023-02-11T19:25:19.723Z,26.30
2023-02-11T19:30:19.979Z,26.30
2023-02-11T19:35:19.977Z,27.60
2023-02-11T19:40:20.379Z,25.60
2023-02-11T19:45:19.812Z,25.00
2023-02-11T19:50:19.961Z,23.30
2023-02-11T19:55:19.788Z,25.60
2023-02-11T20:00:20.112Z,26.20
2023-02-11T20:05:19.969Z,24.50
2023-02-11T20:10:19.716Z,27.00
2023-02-11T20:15:20.063Z,27.20
2023-02-11T20:20:20.042Z,23.80
2023-02-11T20:25:19.752Z,25.00
2023-02-11T20:30:20.761Z,22.70
2023-02-11T20:35:19.845Z,20.90
2023-02-11T20:40:19.676Z,136.00
2023-02-11T20:45:19.811Z,47.10
2023-02-11T20:50:20.186Z,43.50
2023-02-11T20:55:19.644Z,37.10
2023-02-11T21:00:20.400Z,26.60
2023-02-11T21:05:19.860Z,25.70
2023-02-11T21:10:19.720Z,24.40
2023-02-11T21:15:23.279Z,22.00
2023-02-11T21:20:20.117Z,14.10
2023-02-11T21:25:21.371Z,11.10
2023-02-11T21:30:19.771Z,10.30
2023-02-11T21:35:20.092Z,10.10
2023-02-11T21:40:26.258Z,6.40
2023-02-11T21:45:19.799Z,6.90
2023-02-11T21:50:20.126Z,7.10
2023-02-11T21:55:19.608Z,8.30
2023-02-11T22:00:19.853Z,7.80
2023-02-11T22:05:20.307Z,6.20
2023-02-11T22:10:19.804Z,5.80
2023-02-11T22:15:19.688Z,6.70
2023-02-11T22:20:20.607Z,6.60
2023-02-11T22:25:19.691Z,4.40
2023-02-11T22:30:19.616Z,6.00
2023-02-11T22:35:20.035Z,5.80
2023-02-11T22:40:19.617Z,4.10
2023-02-11T22:45:19.600Z,4.10
2023-02-11T22:50:19.847Z,6.70
2023-02-11T22:55:19.572Z,5.10
2023-02-11T23:00:20.221Z,3.70
2023-02-11T23:05:19.887Z,3.70
2023-02-11T23:10:19.857Z,4.90
2023-02-11T23:15:19.706Z,4.20
2023-02-11T23:20:19.957Z,3.60
2023-02-11T23:23:53.876Z,2.60
2023-02-11T23:25:16.974Z,2.60
2023-02-11T23:25:19.462Z,2.60
2023-02-11T23:30:20.971Z,3.40
2023-02-11T23:35:22.249Z,4.00
2023-02-11T23:40:20.600Z,3.50
2023-02-11T23:45:19.596Z,3.40
2023-02-11T23:50:20.821Z,3.90
2023-02-11T23:55:19.558Z,4.80
